createdAt,value
2019-02-09T00:00:02.577Z,9.52
2019-02-09T00:01:27.831Z,9.51
2019-02-09T00:02:32.742Z,9.49
2019-02-09T00:03:39.378Z,9.50
2019-02-09T00:04:43.943Z,9.49
2019-02-09T00:05:48.623Z,9.45
2019-02-09T00:06:53.641Z,9.44
2019-02-09T00:07:58.434Z,9.43
2019-02-09T00:09:04.641Z,9.39
2019-02-09T00:10:09.304Z,9.40
2019-02-09T00:11:13.752Z,9.35
2019-02-09T00:12:18.471Z,9.34
2019-02-09T00:13:23.824Z,9.29
2019-02-09T00:14:28.751Z,9.23
2019-02-09T00:15:33.470Z,9.22
2019-02-09T00:16:38.820Z,9.18
2019-02-09T00:17:43.627Z,9.15
2019-02-09T00:18:48.350Z,9.09
2019-02-09T00:19:53.644Z,9.04
2019-02-09T00:20:58.081Z,8.90
2019-02-09T00:22:03.617Z,8.87
2019-02-09T00:23:09.068Z,8.88
2019-02-09T00:24:13.770Z,8.82
2019-02-09T00:25:18.399Z,8.90
2019-02-09T00:26:23.307Z,8.83
2019-02-09T00:27:27.918Z,8.80
2019-02-09T00:28:32.591Z,8.82
2019-02-09T00:29:45.881Z,8.69
2019-02-09T00:30:44.753Z,8.69
2019-02-09T00:31:49.916Z,8.65
2019-02-09T00:32:55.105Z,8.71
2019-02-09T00:34:00.317Z,8.68
2019-02-09T00:35:04.741Z,8.66
2019-02-09T00:36:09.426Z,8.71
2019-02-09T00:37:14.327Z,8.64
2019-02-09T00:38:19.521Z,8.58
2019-02-09T00:39:24.293Z,8.54
2019-02-09T00:40:28.937Z,8.56
2019-02-09T00:41:33.651Z,8.60
2019-02-09T00:42:38.399Z,8.59
2019-02-09T00:43:43.330Z,8.62
2019-02-09T00:44:48.256Z,8.57
2019-02-09T00:45:53.227Z,8.58
2019-02-09T00:46:57.633Z,8.62
2019-02-09T00:48:02.578Z,8.59
2019-02-09T00:49:11.455Z,8.63
2019-02-09T00:50:24.017Z,8.60
2019-02-09T00:51:43.205Z,8.56
2019-02-09T00:52:55.583Z,8.60
2019-02-09T00:54:10.600Z,8.49
2019-02-09T00:55:28.882Z,8.50
2019-02-09T00:56:39.970Z,8.43
2019-02-09T00:57:54.128Z,8.54
2019-02-09T00:59:04.786Z,8.53
2019-02-09T01:00:23.571Z,8.56
2019-02-09T01:01:29.524Z,8.56
2019-02-09T01:02:38.119Z,8.58
2019-02-09T01:03:42.579Z,8.56
2019-02-09T01:04:47.211Z,8.50
2019-02-09T01:05:52.266Z,8.40
2019-02-09T01:06:57.299Z,8.33
2019-02-09T01:08:03.297Z,8.38
2019-02-09T01:09:12.261Z,8.33
2019-02-09T01:10:16.695Z,8.33
2019-02-09T01:11:21.346Z,8.31
2019-02-09T01:12:55.484Z,8.29
2019-02-09T01:14:08.580Z,8.20
2019-02-09T01:15:16.392Z,8.13
2019-02-09T01:16:21.600Z,8.13
2019-02-09T01:17:30.051Z,8.13
2019-02-09T01:18:37.255Z,7.90
2019-02-09T01:19:46.494Z,7.87
2019-02-09T01:20:52.115Z,7.87
2019-02-09T01:22:03.110Z,7.91
2019-02-09T01:23:07.996Z,8.08
2019-02-09T01:24:12.860Z,7.94
2019-02-09T01:25:17.693Z,7.93
2019-02-09T01:26:23.042Z,7.87
2019-02-09T01:27:28.359Z,7.84
2019-02-09T01:28:33.126Z,7.83
2019-02-09T01:29:37.642Z,7.93
2019-02-09T01:30:42.230Z,7.89
2019-02-09T01:31:46.815Z,7.93
2019-02-09T01:32:51.192Z,7.85
2019-02-09T01:33:55.778Z,7.93
2019-02-09T01:35:00.755Z,7.89
2019-02-09T01:36:05.336Z,7.91
2019-02-09T01:37:10.247Z,7.94
2019-02-09T01:38:14.946Z,7.86
2019-02-09T01:39:19.880Z,7.93
2019-02-09T01:40:26.300Z,7.99
2019-02-09T01:41:30.909Z,7.97
2019-02-09T01:42:35.249Z,7.99
2019-02-09T01:43:40.666Z,7.92
2019-02-09T01:44:45.507Z,8.06
2019-02-09T01:45:50.295Z,8.06
2019-02-09T01:46:54.969Z,8.01
2019-02-09T01:47:59.395Z,8.09
2019-02-09T01:49:04.231Z,8.09
2019-02-09T01:50:10.681Z,8.19
2019-02-09T01:51:15.396Z,8.14
2019-02-09T01:52:19.613Z,8.16
2019-02-09T01:53:23.950Z,8.21
2019-02-09T01:54:28.892Z,8.19
2019-02-09T01:55:34.189Z,8.25
2019-02-09T01:56:40.072Z,8.25
2019-02-09T01:57:44.531Z,8.30
2019-02-09T01:58:49.344Z,8.31
2019-02-09T01:59:54.259Z,8.34
2019-02-09T02:00:59.019Z,8.31
2019-02-09T02:02:03.834Z,8.32
2019-02-09T02:03:08.262Z,8.36
2019-02-09T02:04:12.791Z,8.36
2019-02-09T02:05:17.605Z,8.35
2019-02-09T02:06:22.396Z,8.38
2019-02-09T02:07:27.497Z,8.38
2019-02-09T02:08:31.890Z,8.35
2019-02-09T02:09:36.515Z,8.38
2019-02-09T02:10:41.822Z,8.38
2019-02-09T02:11:46.398Z,8.37
2019-02-09T02:12:51.110Z,8.40
2019-02-09T02:13:55.973Z,8.35
2019-02-09T02:15:00.936Z,8.39
2019-02-09T02:16:05.475Z,8.42
2019-02-09T02:17:09.984Z,8.43
2019-02-09T02:18:14.582Z,8.41
2019-02-09T02:19:19.296Z,8.40
2019-02-09T02:20:24.923Z,8.42
2019-02-09T02:21:29.211Z,8.38
2019-02-09T02:22:33.517Z,8.45
2019-02-09T02:23:38.450Z,8.46
2019-02-09T02:24:43.309Z,8.45
2019-02-09T02:25:47.896Z,8.43
2019-02-09T02:26:52.243Z,8.45
2019-02-09T02:27:56.862Z,8.39
2019-02-09T02:29:01.434Z,8.42
2019-02-09T02:30:07.014Z,8.39
2019-02-09T02:31:11.576Z,8.27
2019-02-09T02:32:16.511Z,8.32
2019-02-09T02:33:21.073Z,8.34
2019-02-09T02:34:25.635Z,8.37
2019-02-09T02:35:30.526Z,8.37
2019-02-09T02:36:35.349Z,8.40
2019-02-09T02:37:40.044Z,8.33
2019-02-09T02:38:44.419Z,8.33
2019-02-09T02:39:49.193Z,8.35
2019-02-09T02:40:55.790Z,8.33
2019-02-09T02:42:01.144Z,8.32
2019-02-09T02:43:28.452Z,8.30
2019-02-09T02:44:37.119Z,8.31
2019-02-09T02:45:51.371Z,8.26
2019-02-09T02:46:57.472Z,8.31
2019-02-09T02:48:02.614Z,8.33
2019-02-09T02:49:14.550Z,8.31
2019-02-09T02:50:20.281Z,8.30
2019-02-09T02:51:25.260Z,8.43
2019-02-09T02:52:32.505Z,8.40
2019-02-09T02:53:37.394Z,8.38
2019-02-09T02:54:42.294Z,8.37
2019-02-09T02:55:46.866Z,8.38
2019-02-09T02:56:52.001Z,8.40
2019-02-09T02:57:56.325Z,8.38
2019-02-09T02:59:00.625Z,8.36
2019-02-09T03:00:07.578Z,8.37
2019-02-09T03:01:12.152Z,8.37
2019-02-09T03:02:17.012Z,8.40
2019-02-09T03:03:21.782Z,8.41
2019-02-09T03:04:26.840Z,8.36
2019-02-09T03:05:31.134Z,8.37
2019-02-09T03:06:35.739Z,8.37
2019-02-09T03:07:40.136Z,8.39
2019-02-09T03:08:44.567Z,8.37
2019-02-09T03:09:49.684Z,8.34
2019-02-09T03:10:55.416Z,8.39
2019-02-09T03:12:00.295Z,8.39
2019-02-09T03:13:05.774Z,8.45
2019-02-09T03:14:10.805Z,8.47
2019-02-09T03:15:26.268Z,8.46
2019-02-09T03:16:30.717Z,8.46
2019-02-09T03:17:35.313Z,8.38
2019-02-09T03:18:40.219Z,8.40
2019-02-09T03:19:45.213Z,8.39
2019-02-09T03:20:50.230Z,8.37
2019-02-09T03:21:58.444Z,8.38
2019-02-09T03:23:03.298Z,8.44
2019-02-09T03:24:07.656Z,8.48
2019-02-09T03:25:14.707Z,8.48
2019-02-09T03:26:19.274Z,8.50
2019-02-09T03:27:23.873Z,8.51
2019-02-09T03:28:28.796Z,8.56
2019-02-09T03:29:33.166Z,8.55
2019-02-09T03:30:47.816Z,8.58
2019-02-09T03:31:45.210Z,8.61
2019-02-09T03:32:49.500Z,8.65
2019-02-09T03:33:54.384Z,8.68
2019-02-09T03:34:58.693Z,8.71
2019-02-09T03:36:03.309Z,8.72
2019-02-09T03:37:07.689Z,8.72
2019-02-09T03:38:12.319Z,8.79
2019-02-09T03:39:17.213Z,8.78
2019-02-09T03:40:22.881Z,8.78
2019-02-09T03:41:27.491Z,8.80
2019-02-09T03:42:32.430Z,8.82
2019-02-09T03:43:37.119Z,8.82
2019-02-09T03:44:42.454Z,8.85
2019-02-09T03:45:47.078Z,8.80
2019-02-09T03:46:52.692Z,8.76
2019-02-09T03:47:57.036Z,8.68
2019-02-09T03:49:01.530Z,8.62
2019-02-09T03:50:07.953Z,8.60
2019-02-09T03:51:12.684Z,8.57
2019-02-09T03:52:17.339Z,8.52
2019-02-09T03:53:21.975Z,8.46
2019-02-09T03:54:26.032Z,8.47
2019-02-09T03:55:30.330Z,8.45
2019-02-09T03:56:34.629Z,8.39
2019-02-09T03:57:39.590Z,8.37
2019-02-09T03:58:43.904Z,8.38
2019-02-09T03:59:48.458Z,8.42
2019-02-09T04:00:55.544Z,8.46
2019-02-09T04:01:59.332Z,8.53
2019-02-09T04:03:03.681Z,8.54
2019-02-09T04:04:07.997Z,8.53
2019-02-09T04:05:12.847Z,8.52
2019-02-09T04:06:17.573Z,8.56
2019-02-09T04:07:22.215Z,8.48
2019-02-09T04:08:27.110Z,8.47
2019-02-09T04:09:32.168Z,8.51
2019-02-09T04:10:37.098Z,8.51
2019-02-09T04:11:41.938Z,8.55
2019-02-09T04:12:46.348Z,8.54
2019-02-09T04:13:50.938Z,8.55
2019-02-09T04:14:56.326Z,8.45
2019-02-09T04:16:01.982Z,8.44
2019-02-09T04:17:07.627Z,8.40
2019-02-09T04:18:13.243Z,8.41
2019-02-09T04:19:18.759Z,8.41
2019-02-09T04:20:23.660Z,8.33
2019-02-09T04:21:28.329Z,8.39
2019-02-09T04:22:32.691Z,8.41
2019-02-09T04:23:37.037Z,8.38
2019-02-09T04:24:42.362Z,8.48
2019-02-09T04:25:47.303Z,8.45
2019-02-09T04:26:52.144Z,8.52
2019-02-09T04:27:56.788Z,8.55
2019-02-09T04:29:01.818Z,8.57
2019-02-09T04:30:10.395Z,8.48
2019-02-09T04:31:15.380Z,8.40
2019-02-09T04:32:20.270Z,8.39
2019-02-09T04:33:24.840Z,8.40
2019-02-09T04:34:29.752Z,8.38
2019-02-09T04:35:34.338Z,8.38
2019-02-09T04:36:40.658Z,8.39
2019-02-09T04:37:56.684Z,8.41
2019-02-09T04:39:01.690Z,8.43
2019-02-09T04:40:07.398Z,8.48
2019-02-09T04:41:12.989Z,8.47
2019-02-09T04:42:18.708Z,8.46
2019-02-09T04:43:23.895Z,8.41
2019-02-09T04:44:28.957Z,8.40
2019-02-09T04:45:33.553Z,8.41
2019-02-09T04:46:38.083Z,8.34
2019-02-09T04:47:43.477Z,8.34
2019-02-09T04:48:48.145Z,8.32
2019-02-09T04:49:54.310Z,8.22
2019-02-09T04:50:59.359Z,8.22
2019-02-09T04:52:03.888Z,8.19
2019-02-09T04:53:08.176Z,8.18
2019-02-09T04:54:13.055Z,8.14
2019-02-09T04:55:19.265Z,8.14
2019-02-09T04:56:24.238Z,8.10
2019-02-09T04:57:29.827Z,8.09
2019-02-09T04:58:34.448Z,8.07
2019-02-09T04:59:39.515Z,8.05
2019-02-09T05:00:45.340Z,8.06
2019-02-09T05:01:49.872Z,8.02
2019-02-09T05:02:55.562Z,7.98
2019-02-09T05:04:01.374Z,7.99
2019-02-09T05:05:06.649Z,8.05
2019-02-09T05:06:10.968Z,7.97
2019-02-09T05:07:16.134Z,7.99
2019-02-09T05:08:21.162Z,8.01
2019-02-09T05:09:26.529Z,8.08
2019-02-09T05:10:30.635Z,8.03
2019-02-09T05:11:35.980Z,8.00
2019-02-09T05:12:40.889Z,8.05
2019-02-09T05:13:45.226Z,8.04
2019-02-09T05:14:49.801Z,8.11
2019-02-09T05:15:54.452Z,8.09
2019-02-09T05:16:59.757Z,8.13
2019-02-09T05:18:04.179Z,8.13
2019-02-09T05:19:09.701Z,8.16
2019-02-09T05:20:16.779Z,8.12
2019-02-09T05:21:21.718Z,8.13
2019-02-09T05:22:27.019Z,8.14
2019-02-09T05:23:32.297Z,8.11
2019-02-09T05:24:39.674Z,8.16
2019-02-09T05:25:44.323Z,8.17
2019-02-09T05:26:49.826Z,8.19
2019-02-09T05:27:55.775Z,8.12
2019-02-09T05:29:01.519Z,8.13
2019-02-09T05:30:08.059Z,8.10
2019-02-09T05:31:12.746Z,8.12
2019-02-09T05:32:17.361Z,8.13
2019-02-09T05:33:21.425Z,8.09
2019-02-09T05:34:26.335Z,8.06
2019-02-09T05:35:31.457Z,8.09
2019-02-09T05:36:36.051Z,8.08
2019-02-09T05:37:40.997Z,8.14
2019-02-09T05:38:45.923Z,8.12
2019-02-09T05:39:50.675Z,8.05
2019-02-09T05:40:55.538Z,8.08
2019-02-09T05:41:59.846Z,8.09
2019-02-09T05:43:04.893Z,8.17
2019-02-09T05:44:11.315Z,8.18
2019-02-09T05:45:20.859Z,8.25
2019-02-09T05:46:25.990Z,8.33
2019-02-09T05:47:31.507Z,8.37
2019-02-09T05:48:36.022Z,8.40
2019-02-09T05:49:41.511Z,8.40
2019-02-09T05:50:46.909Z,8.45
2019-02-09T05:51:51.587Z,8.47
2019-02-09T05:52:56.227Z,8.49
2019-02-09T05:54:00.796Z,8.54
2019-02-09T05:55:05.668Z,8.52
2019-02-09T05:56:10.420Z,8.58
2019-02-09T05:57:15.038Z,8.55
2019-02-09T05:58:19.658Z,8.55
2019-02-09T05:59:24.627Z,8.56
2019-02-09T06:00:37.299Z,8.59
2019-02-09T06:01:42.502Z,8.57
2019-02-09T06:02:47.492Z,8.60
2019-02-09T06:03:52.093Z,8.59
2019-02-09T06:04:56.739Z,8.55
2019-02-09T06:06:01.066Z,8.51
2019-02-09T06:07:05.521Z,8.45
2019-02-09T06:08:10.172Z,8.38
2019-02-09T06:09:14.985Z,8.36
2019-02-09T06:10:19.557Z,8.31
2019-02-09T06:11:24.644Z,8.29
2019-02-09T06:12:29.286Z,8.30
2019-02-09T06:13:33.699Z,8.33
2019-02-09T06:14:38.668Z,8.35
2019-02-09T06:15:43.472Z,8.30
2019-02-09T06:16:48.377Z,8.27
2019-02-09T06:17:53.448Z,8.22
2019-02-09T06:18:59.058Z,8.26
2019-02-09T06:20:03.625Z,8.27
2019-02-09T06:21:08.309Z,8.27
2019-02-09T06:22:13.457Z,8.24
2019-02-09T06:23:18.501Z,8.22
2019-02-09T06:24:23.247Z,8.17
2019-02-09T06:25:29.111Z,8.19
2019-02-09T06:26:34.179Z,8.14
2019-02-09T06:27:39.026Z,8.15
2019-02-09T06:28:43.850Z,8.17
2019-02-09T06:29:48.465Z,8.21
2019-02-09T06:30:53.069Z,8.21
2019-02-09T06:31:57.742Z,8.29
2019-02-09T06:33:02.658Z,8.24
2019-02-09T06:34:07.296Z,8.24
2019-02-09T06:35:11.677Z,8.15
2019-02-09T06:36:15.942Z,8.17
2019-02-09T06:37:20.741Z,8.14
2019-02-09T06:38:25.730Z,8.17
2019-02-09T06:39:30.356Z,8.11
2019-02-09T06:40:34.938Z,8.14
2019-02-09T06:41:39.878Z,8.09
2019-02-09T06:42:45.055Z,8.09
2019-02-09T06:43:49.650Z,8.15
2019-02-09T06:44:54.351Z,8.23
2019-02-09T06:45:59.038Z,8.33
2019-02-09T06:47:03.677Z,8.32
2019-02-09T06:48:30.958Z,8.35
2019-02-09T06:49:35.543Z,8.41
2019-02-09T06:50:40.315Z,8.42
2019-02-09T06:51:45.221Z,8.40
2019-02-09T06:52:49.674Z,8.45
2019-02-09T06:53:54.515Z,8.41
2019-02-09T06:54:58.935Z,8.45
2019-02-09T06:56:03.513Z,8.50
2019-02-09T06:57:07.851Z,8.49
2019-02-09T06:58:12.744Z,8.55
2019-02-09T06:59:17.078Z,8.54
2019-02-09T07:00:21.697Z,8.57
2019-02-09T07:01:26.315Z,8.54
2019-02-09T07:02:30.910Z,8.53
2019-02-09T07:03:35.483Z,8.52
2019-02-09T07:04:40.542Z,8.50
2019-02-09T07:05:45.029Z,8.57
2019-02-09T07:06:49.299Z,8.64
2019-02-09T07:07:54.142Z,8.65
2019-02-09T07:08:58.551Z,8.62
2019-02-09T07:10:03.444Z,8.60
2019-02-09T07:11:08.056Z,8.56
2019-02-09T07:12:13.234Z,8.52
2019-02-09T07:13:18.098Z,8.51
2019-02-09T07:14:22.708Z,8.55
2019-02-09T07:15:28.326Z,8.54
2019-02-09T07:16:33.199Z,8.51
2019-02-09T07:17:38.555Z,8.49
2019-02-09T07:18:43.423Z,8.45
2019-02-09T07:19:48.056Z,8.44
2019-02-09T07:20:52.705Z,8.45
2019-02-09T07:21:57.394Z,8.42
2019-02-09T07:23:02.290Z,8.43
2019-02-09T07:24:07.250Z,8.45
2019-02-09T07:25:12.687Z,8.45
2019-02-09T07:26:17.333Z,8.46
2019-02-09T07:27:22.315Z,8.49
2019-02-09T07:28:27.250Z,8.45
2019-02-09T07:29:31.925Z,8.46
2019-02-09T07:30:36.507Z,8.48
2019-02-09T07:31:41.105Z,8.51
2019-02-09T07:32:46.650Z,8.47
2019-02-09T07:33:51.203Z,8.49
2019-02-09T07:34:55.539Z,8.57
2019-02-09T07:36:00.472Z,8.51
2019-02-09T07:37:05.352Z,8.55
2019-02-09T07:38:10.055Z,8.62
2019-02-09T07:39:16.055Z,8.72
2019-02-09T07:40:20.898Z,8.73
2019-02-09T07:41:25.794Z,8.75
2019-02-09T07:42:32.129Z,8.78
2019-02-09T07:43:37.098Z,8.86
2019-02-09T07:44:41.705Z,8.89
2019-02-09T07:45:46.497Z,8.93
2019-02-09T07:46:50.854Z,8.97
2019-02-09T07:47:55.986Z,8.94
2019-02-09T07:49:00.867Z,8.95
2019-02-09T07:50:13.703Z,8.95
2019-02-09T07:51:18.312Z,9.01
2019-02-09T07:52:23.234Z,9.00
2019-02-09T07:53:27.828Z,8.99
2019-02-09T07:54:32.443Z,9.03
2019-02-09T07:55:37.156Z,9.03
2019-02-09T07:56:41.730Z,9.03
2019-02-09T07:57:46.320Z,9.06
2019-02-09T07:58:51.185Z,9.06
2019-02-09T07:59:57.180Z,9.10
2019-02-09T08:01:01.769Z,9.12
2019-02-09T08:02:06.906Z,9.10
2019-02-09T08:03:11.783Z,9.09
2019-02-09T08:04:16.652Z,9.13
2019-02-09T08:05:21.327Z,9.13
2019-02-09T08:06:25.699Z,9.12
2019-02-09T08:07:30.291Z,9.18
2019-02-09T08:08:34.873Z,9.47
2019-02-09T08:09:39.245Z,9.54
2019-02-09T08:10:43.588Z,9.42
2019-02-09T08:11:48.174Z,9.47
2019-02-09T08:12:52.781Z,9.62
2019-02-09T08:13:57.078Z,9.63
2019-02-09T08:15:02.105Z,9.68
2019-02-09T08:16:06.205Z,9.77
2019-02-09T08:17:10.865Z,9.83
2019-02-09T08:18:15.741Z,9.92
2019-02-09T08:19:20.306Z,9.92
2019-02-09T08:20:26.086Z,9.95
2019-02-09T08:21:30.729Z,10.02
2019-02-09T08:22:35.555Z,10.07
2019-02-09T08:23:40.692Z,10.16
2019-02-09T08:24:45.298Z,10.26
2019-02-09T08:25:49.900Z,10.32
2019-02-09T08:26:54.217Z,10.38
2019-02-09T08:27:58.952Z,10.42
2019-02-09T08:29:03.400Z,10.43
2019-02-09T08:30:09.511Z,10.44
2019-02-09T08:31:13.845Z,10.47
2019-02-09T08:32:18.712Z,10.58
2019-02-09T08:33:23.109Z,10.64
2019-02-09T08:34:28.003Z,10.68
2019-02-09T08:35:32.574Z,10.67
2019-02-09T08:36:37.299Z,10.74
2019-02-09T08:37:41.606Z,10.86
2019-02-09T08:38:46.209Z,10.86
2019-02-09T08:39:51.087Z,10.88
2019-02-09T08:40:55.711Z,10.93
2019-02-09T08:42:08.115Z,10.90
2019-02-09T08:43:13.025Z,10.97
2019-02-09T08:44:17.699Z,11.02
2019-02-09T08:45:22.161Z,11.13
2019-02-09T08:46:26.476Z,11.05
2019-02-09T08:47:31.391Z,11.04
2019-02-09T08:48:36.655Z,11.03
2019-02-09T08:49:41.970Z,10.94
2019-02-09T08:50:50.132Z,11.05
2019-02-09T08:51:55.002Z,11.13
2019-02-09T08:52:59.368Z,11.19
2019-02-09T08:54:03.970Z,11.28
2019-02-09T08:55:08.633Z,11.30
2019-02-09T08:56:12.969Z,11.29
2019-02-09T08:57:17.258Z,11.46
2019-02-09T08:58:21.655Z,11.67
2019-02-09T08:59:26.041Z,11.82
2019-02-09T09:00:31.609Z,11.68
2019-02-09T09:01:36.089Z,11.50
2019-02-09T09:02:40.739Z,11.45
2019-02-09T09:03:46.042Z,11.46
2019-02-09T09:04:50.901Z,11.28
2019-02-09T09:05:55.259Z,11.51
2019-02-09T09:07:07.187Z,11.72
2019-02-09T09:08:12.526Z,11.53
2019-02-09T09:09:17.713Z,11.72
2019-02-09T09:10:23.456Z,11.88
2019-02-09T09:11:27.929Z,12.03
2019-02-09T09:12:32.759Z,11.83
2019-02-09T09:13:37.665Z,11.56
2019-02-09T09:14:41.999Z,11.61
2019-02-09T09:15:49.269Z,11.77
2019-02-09T09:16:53.884Z,11.81
2019-02-09T09:17:58.520Z,11.72
2019-02-09T09:19:03.353Z,11.78
2019-02-09T09:20:12.124Z,11.86
2019-02-09T09:21:16.684Z,11.78
2019-02-09T09:22:20.973Z,11.86
2019-02-09T09:23:25.311Z,11.92
2019-02-09T09:24:30.169Z,12.13
2019-02-09T09:25:35.128Z,12.25
2019-02-09T09:26:39.901Z,12.32
2019-02-09T09:27:44.194Z,12.25
2019-02-09T09:28:48.781Z,12.31
2019-02-09T09:29:53.920Z,12.34
2019-02-09T09:30:58.302Z,12.44
2019-02-09T09:32:03.200Z,12.28
2019-02-09T09:33:07.307Z,12.45
2019-02-09T09:34:11.960Z,12.53
2019-02-09T09:35:16.565Z,12.74
2019-02-09T09:36:21.156Z,12.66
2019-02-09T09:37:25.742Z,12.75
2019-02-09T09:38:30.051Z,12.60
2019-02-09T09:39:34.644Z,12.56
2019-02-09T09:40:40.825Z,12.90
2019-02-09T09:41:45.437Z,12.76
2019-02-09T09:42:50.403Z,12.93
2019-02-09T09:43:55.519Z,12.80
2019-02-09T09:45:00.289Z,12.73
2019-02-09T09:46:04.918Z,12.82
2019-02-09T09:47:09.457Z,12.73
2019-02-09T09:48:15.346Z,12.67
2019-02-09T09:49:19.920Z,12.58
2019-02-09T09:50:24.384Z,12.74
2019-02-09T09:51:29.526Z,12.93
2019-02-09T09:52:33.622Z,13.07
2019-02-09T09:53:38.618Z,13.37
2019-02-09T09:54:43.222Z,12.99
2019-02-09T09:55:48.054Z,13.03
2019-02-09T09:56:52.186Z,12.65
2019-02-09T09:57:56.851Z,12.62
2019-02-09T09:59:01.482Z,12.27
2019-02-09T10:00:06.897Z,12.29
2019-02-09T10:01:11.878Z,12.32
2019-02-09T10:02:16.469Z,12.22
2019-02-09T10:03:21.339Z,12.16
2019-02-09T10:04:25.649Z,12.15
2019-02-09T10:05:30.219Z,12.23
2019-02-09T10:06:35.080Z,12.17
2019-02-09T10:07:40.122Z,12.11
2019-02-09T10:08:44.997Z,12.20
2019-02-09T10:09:49.369Z,12.18
2019-02-09T10:10:54.202Z,12.34
2019-02-09T10:11:59.160Z,12.66
2019-02-09T10:13:03.746Z,12.94
2019-02-09T10:14:09.147Z,12.92
2019-02-09T10:15:15.686Z,12.65
2019-02-09T10:16:19.999Z,12.59
2019-02-09T10:17:25.151Z,12.51
2019-02-09T10:18:30.258Z,12.36
2019-02-09T10:19:34.847Z,12.33
2019-02-09T10:20:39.700Z,12.31
2019-02-09T10:21:44.821Z,12.10
2019-02-09T10:22:49.470Z,11.93
2019-02-09T10:23:54.070Z,12.01
2019-02-09T10:24:58.832Z,12.05
2019-02-09T10:26:03.198Z,11.84
2019-02-09T10:27:07.511Z,11.58
2019-02-09T10:28:12.071Z,11.45
2019-02-09T10:29:16.679Z,11.54
2019-02-09T10:30:22.936Z,11.76
2019-02-09T10:31:27.512Z,11.86
2019-02-09T10:32:32.067Z,11.85
2019-02-09T10:33:36.355Z,11.69
2019-02-09T10:34:41.497Z,11.68
2019-02-09T10:35:46.171Z,11.70
2019-02-09T10:36:50.518Z,11.67
2019-02-09T10:37:55.410Z,11.88
2019-02-09T10:39:00.284Z,11.90
2019-02-09T10:40:05.330Z,11.98
2019-02-09T10:41:10.196Z,11.87
2019-02-09T10:42:14.583Z,11.83
2019-02-09T10:43:19.165Z,11.82
2019-02-09T10:44:23.473Z,11.52
2019-02-09T10:45:28.970Z,11.57
2019-02-09T10:46:33.296Z,11.60
2019-02-09T10:47:38.239Z,11.78
2019-02-09T10:48:42.591Z,12.07
2019-02-09T10:49:48.268Z,11.95
2019-02-09T10:50:52.662Z,12.18
2019-02-09T10:51:57.295Z,12.22
2019-02-09T10:53:02.668Z,12.32
2019-02-09T10:54:06.738Z,12.41
2019-02-09T10:55:11.419Z,12.30
2019-02-09T10:56:17.694Z,12.36
2019-02-09T10:57:22.104Z,12.52
2019-02-09T10:58:27.356Z,12.45
2019-02-09T10:59:32.827Z,12.66
2019-02-09T11:00:39.827Z,12.94
2019-02-09T11:01:44.724Z,13.01
2019-02-09T11:02:52.215Z,13.55
2019-02-09T11:03:55.454Z,13.77
2019-02-09T11:05:00.103Z,13.93
2019-02-09T11:06:05.990Z,13.98
2019-02-09T11:07:12.588Z,13.82
2019-02-09T11:08:28.260Z,13.62
2019-02-09T11:09:32.895Z,13.54
2019-02-09T11:10:37.335Z,13.91
2019-02-09T11:11:53.849Z,13.81
2019-02-09T11:12:58.424Z,13.62
2019-02-09T11:14:02.896Z,13.47
2019-02-09T11:15:09.131Z,13.25
2019-02-09T11:16:14.840Z,13.24
2019-02-09T11:17:19.137Z,13.30
2019-02-09T11:18:23.625Z,13.40
2019-02-09T11:19:28.903Z,13.58
2019-02-09T11:21:06.606Z,13.47
2019-02-09T11:22:30.090Z,13.32
2019-02-09T11:23:37.414Z,13.33
2019-02-09T11:24:42.035Z,13.50
2019-02-09T11:25:46.943Z,13.42
2019-02-09T11:26:51.895Z,13.71
2019-02-09T11:27:56.476Z,13.53
2019-02-09T11:29:01.062Z,13.47
2019-02-09T11:30:06.934Z,13.30
2019-02-09T11:31:12.210Z,13.08
2019-02-09T11:32:16.615Z,13.19
2019-02-09T11:33:23.957Z,12.89
2019-02-09T11:34:28.662Z,12.92
2019-02-09T11:35:33.367Z,12.92
2019-02-09T11:36:39.682Z,12.71
2019-02-09T11:37:51.641Z,12.71
2019-02-09T11:38:57.211Z,12.80
2019-02-09T11:40:03.955Z,12.93
2019-02-09T11:41:08.811Z,12.88
2019-02-09T11:42:13.419Z,12.69
2019-02-09T11:43:17.718Z,12.68
2019-02-09T11:44:22.325Z,12.69
2019-02-09T11:45:28.292Z,12.63
2019-02-09T11:46:33.152Z,12.75
2019-02-09T11:47:38.687Z,12.62
2019-02-09T11:48:42.998Z,12.68
2019-02-09T11:49:47.568Z,12.85
2019-02-09T11:50:51.875Z,12.97
2019-02-09T11:51:56.200Z,12.98
2019-02-09T11:53:00.740Z,12.83
2019-02-09T11:54:05.051Z,12.71
2019-02-09T11:55:10.270Z,12.76
2019-02-09T11:56:14.560Z,12.70
2019-02-09T11:57:19.131Z,12.64
2019-02-09T11:58:23.738Z,12.50
2019-02-09T11:59:28.315Z,12.48
2019-02-09T12:00:41.014Z,12.37
2019-02-09T12:01:45.344Z,12.39
2019-02-09T12:02:49.630Z,12.36
2019-02-09T12:03:53.949Z,12.42
2019-02-09T12:04:58.873Z,12.45
2019-02-09T12:06:03.216Z,12.46
2019-02-09T12:07:08.130Z,12.51
2019-02-09T12:08:12.424Z,12.58
2019-02-09T12:09:16.720Z,12.62
2019-02-09T12:10:21.292Z,12.66
2019-02-09T12:11:25.851Z,12.67
2019-02-09T12:12:32.483Z,12.65
2019-02-09T12:13:39.245Z,12.61
2019-02-09T12:14:43.580Z,12.53
2019-02-09T12:15:47.881Z,12.51
2019-02-09T12:16:52.743Z,12.49
2019-02-09T12:17:57.360Z,12.59
2019-02-09T12:19:02.170Z,12.71
2019-02-09T12:20:08.383Z,12.73
2019-02-09T12:21:12.687Z,12.71
2019-02-09T12:22:17.266Z,12.78
2019-02-09T12:23:21.576Z,12.96
2019-02-09T12:24:26.497Z,13.05
2019-02-09T12:25:32.373Z,13.12
2019-02-09T12:26:40.014Z,13.19
2019-02-09T12:27:44.906Z,13.25
2019-02-09T12:28:49.779Z,13.08
2019-02-09T12:29:54.377Z,12.99
2019-02-09T12:30:59.232Z,13.12
2019-02-09T12:32:03.804Z,13.27
2019-02-09T12:33:09.346Z,13.30
2019-02-09T12:34:13.932Z,13.13
2019-02-09T12:35:18.397Z,12.84
2019-02-09T12:36:23.078Z,12.59
2019-02-09T12:37:27.379Z,12.51
2019-02-09T12:38:32.194Z,12.49
2019-02-09T12:39:36.378Z,12.40
2019-02-09T12:40:40.878Z,12.33
2019-02-09T12:41:45.241Z,12.35
2019-02-09T12:42:49.892Z,12.29
2019-02-09T12:43:54.751Z,12.22
2019-02-09T12:44:59.651Z,12.28
2019-02-09T12:46:04.037Z,12.49
2019-02-09T12:47:08.917Z,12.41
2019-02-09T12:48:13.239Z,12.50
2019-02-09T12:49:17.549Z,12.39
2019-02-09T12:50:22.575Z,12.48
2019-02-09T12:51:27.164Z,12.59
2019-02-09T12:52:31.748Z,12.58
2019-02-09T12:53:36.336Z,12.60
2019-02-09T12:54:41.227Z,12.75
2019-02-09T12:55:45.824Z,12.77
2019-02-09T12:56:50.673Z,12.72
2019-02-09T12:57:55.006Z,12.64
2019-02-09T12:58:59.060Z,12.66
2019-02-09T13:00:03.732Z,12.85
2019-02-09T13:01:08.625Z,12.77
2019-02-09T13:02:13.462Z,12.78
2019-02-09T13:03:30.644Z,12.80
2019-02-09T13:04:29.507Z,12.75
2019-02-09T13:05:34.673Z,12.75
2019-02-09T13:06:39.289Z,12.65
2019-02-09T13:07:43.865Z,12.88
2019-02-09T13:08:49.018Z,12.83
2019-02-09T13:09:53.868Z,13.04
2019-02-09T13:10:58.741Z,13.06
2019-02-09T13:12:03.053Z,13.22
2019-02-09T13:13:07.473Z,13.14
2019-02-09T13:14:11.770Z,12.89
2019-02-09T13:15:19.218Z,12.99
2019-02-09T13:16:23.809Z,12.86
2019-02-09T13:17:28.668Z,13.00
2019-02-09T13:18:33.665Z,13.08
2019-02-09T13:19:38.643Z,13.17
2019-02-09T13:20:43.807Z,13.41
2019-02-09T13:21:48.108Z,13.35
2019-02-09T13:22:53.064Z,13.30
2019-02-09T13:23:57.624Z,13.37
2019-02-09T13:25:08.702Z,13.19
2019-02-09T13:26:12.391Z,13.33
2019-02-09T13:27:16.769Z,13.31
2019-02-09T13:28:21.346Z,13.26
2019-02-09T13:29:25.393Z,13.22
2019-02-09T13:30:31.395Z,13.25
2019-02-09T13:31:35.964Z,13.17
2019-02-09T13:32:40.867Z,13.30
2019-02-09T13:33:45.708Z,13.27
2019-02-09T13:34:50.579Z,13.26
2019-02-09T13:35:55.766Z,13.19
2019-02-09T13:37:00.382Z,13.32
2019-02-09T13:38:04.881Z,13.25
2019-02-09T13:39:09.879Z,13.35
2019-02-09T13:40:15.445Z,13.25
2019-02-09T13:41:20.204Z,13.17
2019-02-09T13:42:24.771Z,13.06
2019-02-09T13:43:29.644Z,13.05
2019-02-09T13:44:34.230Z,12.99
2019-02-09T13:45:41.520Z,12.93
2019-02-09T13:46:46.094Z,12.95
2019-02-09T13:47:50.509Z,12.84
2019-02-09T13:48:55.378Z,12.87
2019-02-09T13:50:01.338Z,12.89
2019-02-09T13:51:06.400Z,12.95
2019-02-09T13:52:11.008Z,12.88
2019-02-09T13:53:15.327Z,12.88
2019-02-09T13:54:19.907Z,12.83
2019-02-09T13:55:24.595Z,12.80
2019-02-09T13:56:29.447Z,12.79
2019-02-09T13:57:34.037Z,12.73
2019-02-09T13:58:41.465Z,12.61
2019-02-09T13:59:46.033Z,12.69
2019-02-09T14:00:50.360Z,12.60
2019-02-09T14:01:55.008Z,12.62
2019-02-09T14:02:59.600Z,12.60
2019-02-09T14:04:04.269Z,12.64
2019-02-09T14:05:09.261Z,12.43
2019-02-09T14:06:13.826Z,12.55
2019-02-09T14:07:18.802Z,12.48
2019-02-09T14:08:22.820Z,12.52
2019-02-09T14:09:27.148Z,12.52
2019-02-09T14:10:31.436Z,12.43
2019-02-09T14:11:36.034Z,12.53
2019-02-09T14:12:40.493Z,12.46
2019-02-09T14:13:45.059Z,12.54
2019-02-09T14:14:49.650Z,12.58
2019-02-09T14:15:54.248Z,12.51
2019-02-09T14:16:58.294Z,12.61
2019-02-09T14:18:03.845Z,12.46